Etusivu
METAR-TAF:

METAR-TAF

Lentoasemat :

Watertown Municipal Airport

Watertown, Wisconsin, Yhdysvallat

Leveyspiiri: 43-10N, Pituuspiiri: 088-43W, korkeus merenpinnasta: 254 m

Tämänhetkinen sää

Tämä raportti tehtiin 15 minuuttia sitten, kello 15.15 UTC
Tuuli 4 kn luoteesta
Lämpötila -3°C
Kosteus 100%
Ilmanpaine 1006 hPa
Näkyvyys: 3.2 km
Hajanaisia pilviä 700 ft:n korkeudessa
Pilvistä 3400 ft:n korkeudessa
heikkoa lumisadetta

METAR: KRYV 171515Z AUTO 32004KT 2SM -SN SCT007 OVC034 M03/M03 A2971 RMK AO2 T10271027

Aika: 09:30 (15:30 UTC)


TAF: puuttuu

Säähavainnot ja -ennusteet yli 4000 lentoasemalta (METAR- ja TAF-raportit).

Käytössä olevat sääasemat on merkitty karttaan keltaisilla ja punaisilla pisteillä.

Aseta hiiri pisteen päälle nähdäksesi sääaseman nimen.

Klikkaa sitten nähdäksesi säähavainnot ja -ennusteet.

Kartan vaihtaminen: klikkaa mustalla rastilla varustettuja vihreitä pisteitä, niin voit zoomata sisään; viivalla varustettua vihreää pistettä, niin voit zoomata ulos tai vihreitä nuolia, niin pääset viereisille kartoille.


METAR-TAF: